sensor_id;sensor_type;location;lat;lon;timestamp;temperature;humidity
52034;DHT22;38045;52.988;6.536;2022-11-15T00:00:30;7.60;99.90
52034;DHT22;38045;52.988;6.536;2022-11-15T00:02:55;7.50;99.90
52034;DHT22;38045;52.988;6.536;2022-11-15T00:05:21;7.50;99.90
52034;DHT22;38045;52.988;6.536;2022-11-15T00:07:47;7.40;99.90
52034;DHT22;38045;52.988;6.536;2022-11-15T00:10:12;7.40;99.90
52034;DHT22;38045;52.988;6.536;2022-11-15T00:12:38;7.40;99.90
52034;DHT22;38045;52.988;6.536;2022-11-15T00:15:04;7.40;99.90
52034;DHT22;38045;52.988;6.536;2022-11-15T00:17:30;7.40;99.90
52034;DHT22;38045;52.988;6.536;2022-11-15T00:19:56;7.40;99.90
52034;DHT22;38045;52.988;6.536;2022-11-15T00:22:22;7.40;99.90
52034;DHT22;38045;52.988;6.536;2022-11-15T00:24:47;7.40;99.90
52034;DHT22;38045;52.988;6.536;2022-11-15T00:27:13;7.40;99.90
52034;DHT22;38045;52.988;6.536;2022-11-15T00:29:38;7.40;99.90
52034;DHT22;38045;52.988;6.536;2022-11-15T00:32:11;7.40;99.90
52034;DHT22;38045;52.988;6.536;2022-11-15T00:34:36;7.40;99.90
52034;DHT22;38045;52.988;6.536;2022-11-15T00:37:02;7.40;99.90
52034;DHT22;38045;52.988;6.536;2022-11-15T00:39:27;7.50;99.90
52034;DHT22;38045;52.988;6.536;2022-11-15T00:41:53;7.50;99.90
52034;DHT22;38045;52.988;6.536;2022-11-15T00:44:19;7.50;99.90
52034;DHT22;38045;52.988;6.536;2022-11-15T00:46:44;7.50;99.90
52034;DHT22;38045;52.988;6.536;2022-11-15T00:49:10;7.50;99.90
52034;DHT22;38045;52.988;6.536;2022-11-15T00:51:35;7.50;99.90
52034;DHT22;38045;52.988;6.536;2022-11-15T00:54:01;7.50;99.90
52034;DHT22;38045;52.988;6.536;2022-11-15T00:56:26;7.50;99.90
52034;DHT22;38045;52.988;6.536;2022-11-15T00:58:52;7.50;99.90
52034;DHT22;38045;52.988;6.536;2022-11-15T01:01:18;7.50;99.90
52034;DHT22;38045;52.988;6.536;2022-11-15T01:03:43;7.50;99.90
52034;DHT22;38045;52.988;6.536;2022-11-15T01:06:09;7.50;99.90
52034;DHT22;38045;52.988;6.536;2022-11-15T01:08:35;7.50;99.90
52034;DHT22;38045;52.988;6.536;2022-11-15T01:11:07;7.50;99.90
52034;DHT22;38045;52.988;6.536;2022-11-15T01:13:34;7.50;99.90
52034;DHT22;38045;52.988;6.536;2022-11-15T01:16:18;7.50;99.90
52034;DHT22;38045;52.988;6.536;2022-11-15T01:18:45;7.50;99.90
52034;DHT22;38045;52.988;6.536;2022-11-15T01:21:13;7.50;99.90
52034;DHT22;38045;52.988;6.536;2022-11-15T01:23:39;7.50;99.90
52034;DHT22;38045;52.988;6.536;2022-11-15T01:26:07;7.50;99.90
52034;DHT22;38045;52.988;6.536;2022-11-15T01:28:35;7.50;99.90
52034;DHT22;38045;52.988;6.536;2022-11-15T01:31:02;7.50;99.90
52034;DHT22;38045;52.988;6.536;2022-11-15T01:33:30;7.50;99.90
52034;DHT22;38045;52.988;6.536;2022-11-15T01:35:55;7.40;99.90
52034;DHT22;38045;52.988;6.536;2022-11-15T01:38:22;7.50;99.90
52034;DHT22;38045;52.988;6.536;2022-11-15T01:40:48;7.40;99.90
52034;DHT22;38045;52.988;6.536;2022-11-15T01:46:27;7.40;99.90
52034;DHT22;38045;52.988;6.536;2022-11-15T01:48:43;7.40;99.90
52034;DHT22;38045;52.988;6.536;2022-11-15T01:51:11;7.40;99.90
52034;DHT22;38045;52.988;6.536;2022-11-15T01:53:39;7.40;99.90
52034;DHT22;38045;52.988;6.536;2022-11-15T01:56:08;7.40;99.90
52034;DHT22;38045;52.988;6.536;2022-11-15T01:58:35;7.40;99.90
52034;DHT22;38045;52.988;6.536;2022-11-15T02:01:01;7.30;99.90
52034;DHT22;38045;52.988;6.536;2022-11-15T02:03:35;7.40;99.90
52034;DHT22;38045;52.988;6.536;2022-11-15T02:06:03;7.30;99.90
52034;DHT22;38045;52.988;6.536;2022-11-15T02:08:30;7.40;99.90
52034;DHT22;38045;52.988;6.536;2022-11-15T02:10:55;7.40;99.90
52034;DHT22;38045;52.988;6.536;2022-11-15T02:13:21;7.40;99.90
52034;DHT22;38045;52.988;6.536;2022-11-15T02:18:56;7.40;99.90
52034;DHT22;38045;52.988;6.536;2022-11-15T02:21:50;7.30;99.90
52034;DHT22;38045;52.988;6.536;2022-11-15T02:41:05;7.40;99.90
52034;DHT22;38045;52.988;6.536;2022-11-15T02:43:45;7.40;99.90
52034;DHT22;38045;52.988;6.536;2022-11-15T02:46:38;7.50;99.90
52034;DHT22;38045;52.988;6.536;2022-11-15T02:49:28;7.50;99.90
52034;DHT22;38045;52.988;6.536;2022-11-15T02:51:55;7.50;99.90
52034;DHT22;38045;52.988;6.536;2022-11-15T02:54:26;7.50;99.90
52034;DHT22;38045;52.988;6.536;2022-11-15T02:56:57;7.50;99.90
52034;DHT22;38045;52.988;6.536;2022-11-15T03:00:19;7.50;99.90
52034;DHT22;38045;52.988;6.536;2022-11-15T03:10:20;7.60;99.90
52034;DHT22;38045;52.988;6.536;2022-11-15T03:13:08;7.60;99.90
52034;DHT22;38045;52.988;6.536;2022-11-15T03:15:43;7.60;99.90
52034;DHT22;38045;52.988;6.536;2022-11-15T03:18:24;7.60;99.90
52034;DHT22;38045;52.988;6.536;2022-11-15T03:20:55;7.70;99.90
52034;DHT22;38045;52.988;6.536;2022-11-15T03:23:23;7.70;99.90
52034;DHT22;38045;52.988;6.536;2022-11-15T03:25:50;7.70;99.90
52034;DHT22;38045;52.988;6.536;2022-11-15T03:28:25;7.80;99.90
52034;DHT22;38045;52.988;6.536;2022-11-15T03:30:53;7.80;99.90
52034;DHT22;38045;52.988;6.536;2022-11-15T03:33:21;7.80;99.90
52034;DHT22;38045;52.988;6.536;2022-11-15T03:35:47;7.80;99.90
52034;DHT22;38045;52.988;6.536;2022-11-15T03:38:26;7.80;99.90
52034;DHT22;38045;52.988;6.536;2022-11-15T03:40:59;7.90;99.90
52034;DHT22;38045;52.988;6.536;2022-11-15T03:43:41;7.90;99.90
52034;DHT22;38045;52.988;6.536;2022-11-15T03:46:42;7.90;99.90
52034;DHT22;38045;52.988;6.536;2022-11-15T03:49:33;7.90;99.90
52034;DHT22;38045;52.988;6.536;2022-11-15T03:52:00;7.90;99.90
52034;DHT22;38045;52.988;6.536;2022-11-15T03:54:26;7.90;99.90
52034;DHT22;38045;52.988;6.536;2022-11-15T03:56:52;7.90;99.90
52034;DHT22;38045;52.988;6.536;2022-11-15T03:59:17;7.90;99.90
52034;DHT22;38045;52.988;6.536;2022-11-15T04:01:43;7.90;99.90
52034;DHT22;38045;52.988;6.536;2022-11-15T04:04:09;7.90;99.90
52034;DHT22;38045;52.988;6.536;2022-11-15T04:06:34;7.90;99.90
52034;DHT22;38045;52.988;6.536;2022-11-15T04:09:00;7.90;99.90
52034;DHT22;38045;52.988;6.536;2022-11-15T04:11:26;7.90;99.90
52034;DHT22;38045;52.988;6.536;2022-11-15T04:13:51;7.90;99.90
52034;DHT22;38045;52.988;6.536;2022-11-15T04:16:17;7.90;99.90
52034;DHT22;38045;52.988;6.536;2022-11-15T04:18:42;8.00;99.90
52034;DHT22;38045;52.988;6.536;2022-11-15T04:21:08;7.90;99.90
52034;DHT22;38045;52.988;6.536;2022-11-15T04:23:53;7.90;99.90
52034;DHT22;38045;52.988;6.536;2022-11-15T04:26:21;8.00;99.90
52034;DHT22;38045;52.988;6.536;2022-11-15T04:28:47;8.00;99.90
52034;DHT22;38045;52.988;6.536;2022-11-15T04:31:31;8.00;99.90
52034;DHT22;38045;52.988;6.536;2022-11-15T04:33:57;8.10;99.90
52034;DHT22;38045;52.988;6.536;2022-11-15T04:36:22;8.10;99.90
52034;DHT22;38045;52.988;6.536;2022-11-15T04:39:07;8.10;99.90
52034;DHT22;38045;52.988;6.536;2022-11-15T04:41:32;8.10;99.90
52034;DHT22;38045;52.988;6.536;2022-11-15T04:43:58;8.20;99.90
52034;DHT22;38045;52.988;6.536;2022-11-15T04:46:24;8.20;99.90
52034;DHT22;38045;52.988;6.536;2022-11-15T04:48:50;8.30;99.90
52034;DHT22;38045;52.988;6.536;2022-11-15T04:51:16;8.30;99.90
52034;DHT22;38045;52.988;6.536;2022-11-15T04:53:42;8.30;99.90
52034;DHT22;38045;52.988;6.536;2022-11-15T04:56:07;8.30;99.90
52034;DHT22;38045;52.988;6.536;2022-11-15T04:58:33;8.40;99.90
52034;DHT22;38045;52.988;6.536;2022-11-15T05:01:14;8.40;99.90
52034;DHT22;38045;52.988;6.536;2022-11-15T05:03:41;8.50;99.90
52034;DHT22;38045;52.988;6.536;2022-11-15T05:06:25;8.50;99.90
52034;DHT22;38045;52.988;6.536;2022-11-15T05:08:51;8.50;99.90
52034;DHT22;38045;52.988;6.536;2022-11-15T05:11:17;8.50;99.90
52034;DHT22;38045;52.988;6.536;2022-11-15T05:13:42;8.50;99.90
52034;DHT22;38045;52.988;6.536;2022-11-15T05:16:08;8.60;99.90
52034;DHT22;38045;52.988;6.536;2022-11-15T05:18:34;8.60;99.90
52034;DHT22;38045;52.988;6.536;2022-11-15T05:21:07;8.60;99.90
52034;DHT22;38045;52.988;6.536;2022-11-15T05:23:34;8.60;99.90
52034;DHT22;38045;52.988;6.536;2022-11-15T05:26:00;8.70;99.90
52034;DHT22;38045;52.988;6.536;2022-11-15T05:28:26;8.70;99.90
52034;DHT22;38045;52.988;6.536;2022-11-15T05:30:52;8.70;99.90
52034;DHT22;38045;52.988;6.536;2022-11-15T05:33:18;8.80;99.90
52034;DHT22;38045;52.988;6.536;2022-11-15T05:35:48;8.80;99.90
52034;DHT22;38045;52.988;6.536;2022-11-15T05:38:16;8.80;99.90
52034;DHT22;38045;52.988;6.536;2022-11-15T05:40:42;8.90;99.90
52034;DHT22;38045;52.988;6.536;2022-11-15T05:43:07;8.90;99.90
52034;DHT22;38045;52.988;6.536;2022-11-15T05:45:34;9.00;99.90
52034;DHT22;38045;52.988;6.536;2022-11-15T05:48:05;9.00;99.90
52034;DHT22;38045;52.988;6.536;2022-11-15T05:50:32;9.10;99.90
52034;DHT22;38045;52.988;6.536;2022-11-15T05:52:58;9.10;99.90
52034;DHT22;38045;52.988;6.536;2022-11-15T05:55:24;9.10;99.90
52034;DHT22;38045;52.988;6.536;2022-11-15T05:57:50;9.10;99.90
52034;DHT22;38045;52.988;6.536;2022-11-15T06:00:16;9.20;99.90
52034;DHT22;38045;52.988;6.536;2022-11-15T06:02:41;9.20;99.90
52034;DHT22;38045;52.988;6.536;2022-11-15T06:05:07;9.20;99.90
52034;DHT22;38045;52.988;6.536;2022-11-15T06:07:33;9.20;99.90
52034;DHT22;38045;52.988;6.536;2022-11-15T06:09:58;9.30;99.90
52034;DHT22;38045;52.988;6.536;2022-11-15T06:12:24;9.40;99.90
52034;DHT22;38045;52.988;6.536;2022-11-15T06:14:50;9.40;99.90
52034;DHT22;38045;52.988;6.536;2022-11-15T06:17:15;9.50;99.90
52034;DHT22;38045;52.988;6.536;2022-11-15T06:19:41;9.40;99.90
52034;DHT22;38045;52.988;6.536;2022-11-15T06:22:06;9.50;99.90
52034;DHT22;38045;52.988;6.536;2022-11-15T06:24:32;9.50;99.90
52034;DHT22;38045;52.988;6.536;2022-11-15T06:26:58;9.60;99.90
52034;DHT22;38045;52.988;6.536;2022-11-15T06:29:24;9.60;99.90
52034;DHT22;38045;52.988;6.536;2022-11-15T06:31:49;9.60;99.90
52034;DHT22;38045;52.988;6.536;2022-11-15T06:34:15;9.60;99.90
52034;DHT22;38045;52.988;6.536;2022-11-15T06:36:40;9.60;99.90
52034;DHT22;38045;52.988;6.536;2022-11-15T06:39:06;9.60;99.90
52034;DHT22;38045;52.988;6.536;2022-11-15T06:41:35;9.70;99.90
52034;DHT22;38045;52.988;6.536;2022-11-15T06:44:01;9.70;99.90
52034;DHT22;38045;52.988;6.536;2022-11-15T06:46:27;9.70;99.90
52034;DHT22;38045;52.988;6.536;2022-11-15T06:48:53;9.70;99.90
52034;DHT22;38045;52.988;6.536;2022-11-15T06:51:18;9.70;99.90
52034;DHT22;38045;52.988;6.536;2022-11-15T06:53:44;9.70;99.90
52034;DHT22;38045;52.988;6.536;2022-11-15T06:56:09;9.80;99.90
52034;DHT22;38045;52.988;6.536;2022-11-15T06:58:36;9.80;99.90
52034;DHT22;38045;52.988;6.536;2022-11-15T07:01:08;9.80;99.90
52034;DHT22;38045;52.988;6.536;2022-11-15T07:03:36;9.80;99.90
52034;DHT22;38045;52.988;6.536;2022-11-15T07:06:03;9.80;99.90
52034;DHT22;38045;52.988;6.536;2022-11-15T07:08:29;9.90;99.90
52034;DHT22;38045;52.988;6.536;2022-11-15T07:11:00;9.90;99.90
52034;DHT22;38045;52.988;6.536;2022-11-15T07:13:28;9.90;99.90
52034;DHT22;38045;52.988;6.536;2022-11-15T07:15:54;9.90;99.90
52034;DHT22;38045;52.988;6.536;2022-11-15T07:18:19;10.00;99.90
52034;DHT22;38045;52.988;6.536;2022-11-15T07:20:45;10.00;99.90
52034;DHT22;38045;52.988;6.536;2022-11-15T07:23:11;10.00;99.90
52034;DHT22;38045;52.988;6.536;2022-11-15T07:25:36;10.00;99.90
52034;DHT22;38045;52.988;6.536;2022-11-15T07:28:02;10.10;99.90
52034;DHT22;38045;52.988;6.536;2022-11-15T07:30:28;10.10;99.90
52034;DHT22;38045;52.988;6.536;2022-11-15T07:32:54;10.20;99.90
52034;DHT22;38045;52.988;6.536;2022-11-15T07:35:20;10.20;99.90
52034;DHT22;38045;52.988;6.536;2022-11-15T07:37:57;10.20;99.90
52034;DHT22;38045;52.988;6.536;2022-11-15T07:40:23;10.20;99.90
52034;DHT22;38045;52.988;6.536;2022-11-15T07:42:49;10.20;99.90
52034;DHT22;38045;52.988;6.536;2022-11-15T07:45:23;10.30;99.90
52034;DHT22;38045;52.988;6.536;2022-11-15T07:47:51;10.20;99.90
52034;DHT22;38045;52.988;6.536;2022-11-15T07:50:17;10.30;99.90
52034;DHT22;38045;52.988;6.536;2022-11-15T07:52:43;10.30;99.90
52034;DHT22;38045;52.988;6.536;2022-11-15T07:55:09;10.30;99.90
52034;DHT22;38045;52.988;6.536;2022-11-15T07:57:35;10.30;99.90
52034;DHT22;38045;52.988;6.536;2022-11-15T08:00:00;10.30;99.90
52034;DHT22;38045;52.988;6.536;2022-11-15T08:02:26;10.40;99.90
52034;DHT22;38045;52.988;6.536;2022-11-15T08:04:52;10.40;99.90
52034;DHT22;38045;52.988;6.536;2022-11-15T08:07:17;10.40;99.90
52034;DHT22;38045;52.988;6.536;2022-11-15T08:09:43;10.40;99.90
52034;DHT22;38045;52.988;6.536;2022-11-15T08:12:08;10.40;99.90
52034;DHT22;38045;52.988;6.536;2022-11-15T08:14:35;10.40;99.90
52034;DHT22;38045;52.988;6.536;2022-11-15T08:17:01;10.50;99.90
52034;DHT22;38045;52.988;6.536;2022-11-15T08:19:26;10.50;99.90
52034;DHT22;38045;52.988;6.536;2022-11-15T08:21:52;10.50;99.90
52034;DHT22;38045;52.988;6.536;2022-11-15T08:24:17;10.50;99.90
52034;DHT22;38045;52.988;6.536;2022-11-15T08:26:43;10.50;99.90
52034;DHT22;38045;52.988;6.536;2022-11-15T08:29:08;10.60;99.90
52034;DHT22;38045;52.988;6.536;2022-11-15T08:31:35;10.60;99.90
52034;DHT22;38045;52.988;6.536;2022-11-15T08:34:02;10.60;99.90
52034;DHT22;38045;52.988;6.536;2022-11-15T08:36:28;10.60;99.90
52034;DHT22;38045;52.988;6.536;2022-11-15T08:38:53;10.70;99.90
52034;DHT22;38045;52.988;6.536;2022-11-15T08:41:31;10.70;99.90
52034;DHT22;38045;52.988;6.536;2022-11-15T08:43:58;10.70;99.90
52034;DHT22;38045;52.988;6.536;2022-11-15T08:46:23;10.70;99.90
52034;DHT22;38045;52.988;6.536;2022-11-15T08:48:49;10.80;99.90
52034;DHT22;38045;52.988;6.536;2022-11-15T08:51:15;10.80;99.90
52034;DHT22;38045;52.988;6.536;2022-11-15T08:53:41;10.80;99.90
52034;DHT22;38045;52.988;6.536;2022-11-15T08:56:08;10.90;99.90
52034;DHT22;38045;52.988;6.536;2022-11-15T08:58:34;10.90;99.90
52034;DHT22;38045;52.988;6.536;2022-11-15T09:01:00;10.90;99.90
52034;DHT22;38045;52.988;6.536;2022-11-15T09:03:26;10.90;99.90
52034;DHT22;38045;52.988;6.536;2022-11-15T09:05:56;11.00;99.90
52034;DHT22;38045;52.988;6.536;2022-11-15T09:08:22;11.00;99.90
52034;DHT22;38045;52.988;6.536;2022-11-15T09:10:48;11.00;99.90
52034;DHT22;38045;52.988;6.536;2022-11-15T09:13:14;11.00;99.90
52034;DHT22;38045;52.988;6.536;2022-11-15T09:15:39;11.00;99.90
52034;DHT22;38045;52.988;6.536;2022-11-15T09:18:05;11.10;99.90
52034;DHT22;38045;52.988;6.536;2022-11-15T09:20:31;11.10;99.90
52034;DHT22;38045;52.988;6.536;2022-11-15T09:23:01;11.10;99.90
52034;DHT22;38045;52.988;6.536;2022-11-15T09:25:27;11.10;99.90
52034;DHT22;38045;52.988;6.536;2022-11-15T09:27:53;11.20;99.90
52034;DHT22;38045;52.988;6.536;2022-11-15T09:30:19;11.20;99.90
52034;DHT22;38045;52.988;6.536;2022-11-15T09:32:44;11.30;99.90
52034;DHT22;38045;52.988;6.536;2022-11-15T09:35:10;11.30;99.90
52034;DHT22;38045;52.988;6.536;2022-11-15T09:37:35;11.30;99.90
52034;DHT22;38045;52.988;6.536;2022-11-15T09:40:01;11.30;99.90
52034;DHT22;38045;52.988;6.536;2022-11-15T09:48:48;11.40;99.90
52034;DHT22;38045;52.988;6.536;2022-11-15T09:51:38;11.40;99.90
52034;DHT22;38045;52.988;6.536;2022-11-15T09:54:41;11.40;99.90
52034;DHT22;38045;52.988;6.536;2022-11-15T09:57:13;11.40;99.90
52034;DHT22;38045;52.988;6.536;2022-11-15T09:59:44;11.50;99.90
52034;DHT22;38045;52.988;6.536;2022-11-15T10:05:22;11.60;99.90
52034;DHT22;38045;52.988;6.536;2022-11-15T10:13:02;11.70;99.90
52034;DHT22;38045;52.988;6.536;2022-11-15T10:15:28;11.70;99.90
52034;DHT22;38045;52.988;6.536;2022-11-15T10:20:58;11.70;99.90
52034;DHT22;38045;52.988;6.536;2022-11-15T10:23:31;11.70;99.90
52034;DHT22;38045;52.988;6.536;2022-11-15T10:25:59;11.70;99.90
52034;DHT22;38045;52.988;6.536;2022-11-15T10:28:31;11.70;99.90
52034;DHT22;38045;52.988;6.536;2022-11-15T10:30:59;11.70;99.90
52034;DHT22;38045;52.988;6.536;2022-11-15T10:33:39;11.70;99.90
52034;DHT22;38045;52.988;6.536;2022-11-15T10:36:22;11.80;99.90
52034;DHT22;38045;52.988;6.536;2022-11-15T10:43:41;11.80;99.90
52034;DHT22;38045;52.988;6.536;2022-11-15T10:46:23;11.80;99.90
52034;DHT22;38045;52.988;6.536;2022-11-15T10:48:50;11.80;99.90
52034;DHT22;38045;52.988;6.536;2022-11-15T10:51:22;11.90;99.90
52034;DHT22;38045;52.988;6.536;2022-11-15T10:53:51;12.00;99.90
52034;DHT22;38045;52.988;6.536;2022-11-15T10:56:21;12.00;99.90
52034;DHT22;38045;52.988;6.536;2022-11-15T10:58:56;12.10;99.90
52034;DHT22;38045;52.988;6.536;2022-11-15T11:01:24;12.10;99.90
52034;DHT22;38045;52.988;6.536;2022-11-15T11:04:03;12.20;99.90
52034;DHT22;38045;52.988;6.536;2022-11-15T11:06:29;12.30;99.90
52034;DHT22;38045;52.988;6.536;2022-11-15T11:09:05;12.50;99.90
52034;DHT22;38045;52.988;6.536;2022-11-15T11:11:51;12.60;99.90
52034;DHT22;38045;52.988;6.536;2022-11-15T11:14:34;12.70;99.90
52034;DHT22;38045;52.988;6.536;2022-11-15T11:20:07;12.80;99.90
52034;DHT22;38045;52.988;6.536;2022-11-15T11:25:26;12.90;99.90
52034;DHT22;38045;52.988;6.536;2022-11-15T11:28:16;12.90;99.90
52034;DHT22;38045;52.988;6.536;2022-11-15T11:30:47;12.90;99.90
52034;DHT22;38045;52.988;6.536;2022-11-15T11:33:24;13.00;99.90
52034;DHT22;38045;52.988;6.536;2022-11-15T11:46:52;12.90;99.90
52034;DHT22;38045;52.988;6.536;2022-11-15T11:49:47;13.00;99.90
52034;DHT22;38045;52.988;6.536;2022-11-15T11:52:33;12.90;99.90
52034;DHT22;38045;52.988;6.536;2022-11-15T11:55:24;12.90;99.90
52034;DHT22;38045;52.988;6.536;2022-11-15T11:58:06;12.80;99.90
52034;DHT22;38045;52.988;6.536;2022-11-15T12:00:40;12.80;99.90
52034;DHT22;38045;52.988;6.536;2022-11-15T12:06:29;12.80;99.90
52034;DHT22;38045;52.988;6.536;2022-11-15T12:14:55;12.70;99.90
52034;DHT22;38045;52.988;6.536;2022-11-15T12:17:27;12.70;99.90
52034;DHT22;38045;52.988;6.536;2022-11-15T12:19:58;12.60;99.90
52034;DHT22;38045;52.988;6.536;2022-11-15T12:22:44;12.60;99.90
52034;DHT22;38045;52.988;6.536;2022-11-15T12:28:01;12.60;99.90
52034;DHT22;38045;52.988;6.536;2022-11-15T12:30:37;12.70;99.90
52034;DHT22;38045;52.988;6.536;2022-11-15T12:33:05;12.70;99.90
52034;DHT22;38045;52.988;6.536;2022-11-15T12:35:39;12.80;99.90
52034;DHT22;38045;52.988;6.536;2022-11-15T12:38:10;12.90;99.90
52034;DHT22;38045;52.988;6.536;2022-11-15T12:40:38;13.10;99.90
52034;DHT22;38045;52.988;6.536;2022-11-15T12:45:41;13.50;99.90
52034;DHT22;38045;52.988;6.536;2022-11-15T12:53:39;13.50;99.90
52034;DHT22;38045;52.988;6.536;2022-11-15T13:12:48;13.20;99.90
52034;DHT22;38045;52.988;6.536;2022-11-15T13:17:54;13.30;99.90
52034;DHT22;38045;52.988;6.536;2022-11-15T13:20:29;13.20;99.90
52034;DHT22;38045;52.988;6.536;2022-11-15T13:30:51;13.00;99.90
52034;DHT22;38045;52.988;6.536;2022-11-15T13:33:36;13.00;99.90
52034;DHT22;38045;52.988;6.536;2022-11-15T13:36:12;13.00;99.90
52034;DHT22;38045;52.988;6.536;2022-11-15T13:38:39;13.00;99.90
52034;DHT22;38045;52.988;6.536;2022-11-15T13:41:20;13.00;99.90
52034;DHT22;38045;52.988;6.536;2022-11-15T13:43:48;13.00;99.90
52034;DHT22;38045;52.988;6.536;2022-11-15T13:46:20;13.20;99.90
52034;DHT22;38045;52.988;6.536;2022-11-15T13:51:33;13.30;99.90
52034;DHT22;38045;52.988;6.536;2022-11-15T13:56:41;13.40;99.90
52034;DHT22;38045;52.988;6.536;2022-11-15T13:59:44;13.40;99.90
52034;DHT22;38045;52.988;6.536;2022-11-15T14:02:15;13.50;99.90
52034;DHT22;38045;52.988;6.536;2022-11-15T14:07:53;13.60;99.90
52034;DHT22;38045;52.988;6.536;2022-11-15T14:10:34;13.50;99.90
52034;DHT22;38045;52.988;6.536;2022-11-15T14:13:02;13.50;99.90
52034;DHT22;38045;52.988;6.536;2022-11-15T14:15:37;13.40;99.90
52034;DHT22;38045;52.988;6.536;2022-11-15T14:18:04;13.30;99.90
52034;DHT22;38045;52.988;6.536;2022-11-15T14:20:35;13.10;99.90
52034;DHT22;38045;52.988;6.536;2022-11-15T14:23:19;13.00;99.90
52034;DHT22;38045;52.988;6.536;2022-11-15T14:25:58;12.90;99.90
52034;DHT22;38045;52.988;6.536;2022-11-15T14:30:52;12.70;99.90
52034;DHT22;38045;52.988;6.536;2022-11-15T14:33:21;12.70;99.90
52034;DHT22;38045;52.988;6.536;2022-11-15T14:35:56;12.60;99.90
52034;DHT22;38045;52.988;6.536;2022-11-15T14:38:24;12.50;99.90
52034;DHT22;38045;52.988;6.536;2022-11-15T14:40:50;12.50;99.90
52034;DHT22;38045;52.988;6.536;2022-11-15T14:43:16;12.40;99.90
52034;DHT22;38045;52.988;6.536;2022-11-15T14:45:42;12.40;99.90
52034;DHT22;38045;52.988;6.536;2022-11-15T14:48:08;12.30;99.90
52034;DHT22;38045;52.988;6.536;2022-11-15T14:50:34;12.20;99.90
52034;DHT22;38045;52.988;6.536;2022-11-15T14:53:00;12.20;99.90
52034;DHT22;38045;52.988;6.536;2022-11-15T14:55:29;12.10;99.90
52034;DHT22;38045;52.988;6.536;2022-11-15T14:57:56;12.10;99.90
52034;DHT22;38045;52.988;6.536;2022-11-15T15:00:22;12.00;99.90
52034;DHT22;38045;52.988;6.536;2022-11-15T15:02:53;11.90;99.90
52034;DHT22;38045;52.988;6.536;2022-11-15T15:05:23;11.80;99.90
52034;DHT22;38045;52.988;6.536;2022-11-15T15:07:50;11.80;99.90
52034;DHT22;38045;52.988;6.536;2022-11-15T15:10:17;11.70;99.90
52034;DHT22;38045;52.988;6.536;2022-11-15T15:12:43;11.60;99.90
52034;DHT22;38045;52.988;6.536;2022-11-15T15:15:23;11.60;99.90
52034;DHT22;38045;52.988;6.536;2022-11-15T15:17:49;11.50;99.90
52034;DHT22;38045;52.988;6.536;2022-11-15T15:20:16;11.50;99.90
52034;DHT22;38045;52.988;6.536;2022-11-15T15:22:42;11.40;99.90
52034;DHT22;38045;52.988;6.536;2022-11-15T15:25:32;11.40;99.90
52034;DHT22;38045;52.988;6.536;2022-11-15T15:27:59;11.30;99.90
52034;DHT22;38045;52.988;6.536;2022-11-15T15:30:26;11.30;99.90
52034;DHT22;38045;52.988;6.536;2022-11-15T15:32:52;11.30;99.90
52034;DHT22;38045;52.988;6.536;2022-11-15T15:35:18;11.30;99.90
52034;DHT22;38045;52.988;6.536;2022-11-15T15:37:45;11.30;99.90
52034;DHT22;38045;52.988;6.536;2022-11-15T15:40:17;11.30;99.90
52034;DHT22;38045;52.988;6.536;2022-11-15T15:42:43;11.30;99.90
52034;DHT22;38045;52.988;6.536;2022-11-15T15:45:10;11.20;99.90
52034;DHT22;38045;52.988;6.536;2022-11-15T15:47:35;11.30;99.90
52034;DHT22;38045;52.988;6.536;2022-11-15T15:50:01;11.30;99.90
52034;DHT22;38045;52.988;6.536;2022-11-15T15:52:27;11.30;99.90
52034;DHT22;38045;52.988;6.536;2022-11-15T15:54:53;11.30;99.90
52034;DHT22;38045;52.988;6.536;2022-11-15T15:57:18;11.30;99.90
52034;DHT22;38045;52.988;6.536;2022-11-15T15:59:44;11.30;99.90
52034;DHT22;38045;52.988;6.536;2022-11-15T16:02:13;11.30;99.90
52034;DHT22;38045;52.988;6.536;2022-11-15T16:04:39;11.30;99.90
52034;DHT22;38045;52.988;6.536;2022-11-15T16:07:06;11.30;99.90
52034;DHT22;38045;52.988;6.536;2022-11-15T16:09:37;11.20;99.90
52034;DHT22;38045;52.988;6.536;2022-11-15T16:12:21;11.20;99.90
52034;DHT22;38045;52.988;6.536;2022-11-15T16:14:47;11.10;99.90
52034;DHT22;38045;52.988;6.536;2022-11-15T16:17:18;11.20;99.90
52034;DHT22;38045;52.988;6.536;2022-11-15T16:19:45;11.10;99.90
52034;DHT22;38045;52.988;6.536;2022-11-15T16:22:10;11.10;99.90
52034;DHT22;38045;52.988;6.536;2022-11-15T16:24:36;11.10;99.90
52034;DHT22;38045;52.988;6.536;2022-11-15T16:27:02;11.10;99.90
52034;DHT22;38045;52.988;6.536;2022-11-15T16:29:27;11.00;99.90
52034;DHT22;38045;52.988;6.536;2022-11-15T16:31:53;11.00;99.90
52034;DHT22;38045;52.988;6.536;2022-11-15T16:34:19;11.00;99.90
52034;DHT22;38045;52.988;6.536;2022-11-15T16:36:45;11.00;99.90
52034;DHT22;38045;52.988;6.536;2022-11-15T16:39:11;11.00;99.90
52034;DHT22;38045;52.988;6.536;2022-11-15T16:41:38;11.00;99.90
52034;DHT22;38045;52.988;6.536;2022-11-15T16:44:04;11.00;99.90
52034;DHT22;38045;52.988;6.536;2022-11-15T16:46:30;11.00;99.90
52034;DHT22;38045;52.988;6.536;2022-11-15T16:48:56;11.10;99.90
52034;DHT22;38045;52.988;6.536;2022-11-15T16:51:22;11.10;99.90
52034;DHT22;38045;52.988;6.536;2022-11-15T16:53:49;11.10;99.90
52034;DHT22;38045;52.988;6.536;2022-11-15T16:58:44;11.10;99.90
52034;DHT22;38045;52.988;6.536;2022-11-15T17:01:17;11.20;99.90
52034;DHT22;38045;52.988;6.536;2022-11-15T17:03:43;11.20;99.90
52034;DHT22;38045;52.988;6.536;2022-11-15T17:06:09;11.20;99.90
52034;DHT22;38045;52.988;6.536;2022-11-15T17:08:35;11.20;99.90
52034;DHT22;38045;52.988;6.536;2022-11-15T17:11:04;11.20;99.90
52034;DHT22;38045;52.988;6.536;2022-11-15T17:13:30;11.30;99.90
52034;DHT22;38045;52.988;6.536;2022-11-15T17:16:09;11.30;99.90
52034;DHT22;38045;52.988;6.536;2022-11-15T17:18:35;11.30;99.90
52034;DHT22;38045;52.988;6.536;2022-11-15T17:21:09;11.30;99.90
52034;DHT22;38045;52.988;6.536;2022-11-15T17:23:36;11.30;99.90
52034;DHT22;38045;52.988;6.536;2022-11-15T17:26:02;11.30;99.90
52034;DHT22;38045;52.988;6.536;2022-11-15T17:28:33;11.40;99.90
52034;DHT22;38045;52.988;6.536;2022-11-15T17:30:59;11.30;99.90
52034;DHT22;38045;52.988;6.536;2022-11-15T17:33:25;11.40;99.90
52034;DHT22;38045;52.988;6.536;2022-11-15T17:36:01;11.50;99.90
52034;DHT22;38045;52.988;6.536;2022-11-15T17:38:28;11.50;99.90
52034;DHT22;38045;52.988;6.536;2022-11-15T17:41:19;11.50;99.90
52034;DHT22;38045;52.988;6.536;2022-11-15T17:43:46;11.50;99.90
52034;DHT22;38045;52.988;6.536;2022-11-15T17:46:19;11.50;99.90
52034;DHT22;38045;52.988;6.536;2022-11-15T17:48:46;11.50;99.90
52034;DHT22;38045;52.988;6.536;2022-11-15T17:51:14;11.50;99.90
52034;DHT22;38045;52.988;6.536;2022-11-15T17:53:42;11.50;99.90
52034;DHT22;38045;52.988;6.536;2022-11-15T17:56:16;11.40;99.90
52034;DHT22;38045;52.988;6.536;2022-11-15T17:58:47;11.40;99.90
52034;DHT22;38045;52.988;6.536;2022-11-15T18:01:20;11.40;99.90